createdAt,value
2023-05-21T00:00:55.639Z,91.69
2023-05-21T00:01:55.618Z,92.09
2023-05-21T00:02:55.721Z,93.91
2023-05-21T00:03:55.695Z,93.20
2023-05-21T00:04:55.579Z,92.80
2023-05-21T00:05:55.613Z,91.89
2023-05-21T00:06:55.568Z,93.40
2023-05-21T00:07:55.545Z,91.49
2023-05-21T00:08:55.534Z,89.87
2023-05-21T00:09:55.649Z,90.11
2023-05-21T00:10:55.511Z,91.42
2023-05-21T00:11:55.490Z,93.24
2023-05-21T00:12:55.474Z,92.24
2023-05-21T00:13:55.458Z,91.73
2023-05-21T00:14:55.448Z,90.01
2023-05-21T00:15:55.456Z,88.70
2023-05-21T00:16:55.422Z,88.09
2023-05-21T00:17:55.429Z,88.70
2023-05-21T00:18:55.431Z,87.99
2023-05-21T00:19:55.384Z,88.19
2023-05-21T00:20:55.571Z,88.59
2023-05-21T00:21:55.353Z,89.20
2023-05-21T00:22:55.339Z,90.25
2023-05-21T00:23:55.339Z,90.62
2023-05-21T00:24:55.322Z,87.58
2023-05-21T00:25:55.330Z,88.43
2023-05-21T00:26:55.287Z,88.64
2023-05-21T00:27:55.268Z,89.24
2023-05-21T00:28:55.253Z,89.45
2023-05-21T00:29:55.243Z,89.45
2023-05-21T00:30:55.240Z,88.33
2023-05-21T00:31:55.278Z,88.53
2023-05-21T00:32:55.229Z,88.64
2023-05-21T00:33:55.207Z,88.23
2023-05-21T00:34:55.178Z,87.93
2023-05-21T00:35:55.161Z,89.04
2023-05-21T00:36:55.170Z,89.45
2023-05-21T00:37:55.140Z,88.64
2023-05-21T00:38:55.138Z,87.97
2023-05-21T00:39:57.571Z,87.77
2023-05-21T00:40:55.100Z,87.77
2023-05-21T00:41:55.106Z,87.46
2023-05-21T00:42:55.075Z,87.16
2023-05-21T00:43:55.057Z,87.05
2023-05-21T00:44:55.044Z,86.96
2023-05-21T00:45:55.055Z,86.55
2023-05-21T00:46:55.037Z,86.45
2023-05-21T00:47:55.048Z,85.94
2023-05-21T00:48:55.001Z,85.64
2023-05-21T00:49:54.984Z,85.64
2023-05-21T00:50:54.974Z,85.88
2023-05-21T00:51:54.962Z,86.76
2023-05-21T00:52:54.937Z,87.36
2023-05-21T00:53:54.921Z,87.87
2023-05-21T00:54:54.907Z,87.30
2023-05-21T00:55:54.906Z,86.49
2023-05-21T00:56:54.888Z,85.17
2023-05-21T00:57:54.904Z,84.47
2023-05-21T00:58:54.850Z,84.77
2023-05-21T00:59:54.842Z,85.48
2023-05-21T01:00:54.886Z,85.68
2023-05-21T01:01:54.817Z,84.47
2023-05-21T01:02:54.860Z,85.17
2023-05-21T01:03:54.789Z,84.56
2023-05-21T01:04:54.792Z,84.36
2023-05-21T01:05:54.770Z,82.95
2023-05-21T01:06:54.754Z,83.04
2023-05-21T01:07:54.731Z,83.76
2023-05-21T01:08:54.719Z,84.67
2023-05-21T01:09:54.709Z,84.77
2023-05-21T01:10:54.693Z,84.67
2023-05-21T01:11:54.684Z,83.96
2023-05-21T01:12:54.668Z,82.54
2023-05-21T01:13:54.676Z,83.04
2023-05-21T01:14:54.654Z,82.64
2023-05-21T01:15:54.623Z,82.54
2023-05-21T01:16:54.644Z,83.04
2023-05-21T01:17:54.612Z,83.55
2023-05-21T01:18:54.629Z,84.27
2023-05-21T01:19:54.601Z,84.67
2023-05-21T01:20:54.562Z,84.36
2023-05-21T01:21:54.543Z,81.93
2023-05-21T01:22:54.533Z,81.73
2023-05-21T01:23:54.527Z,81.73
2023-05-21T01:24:54.520Z,82.54
2023-05-21T01:25:54.491Z,83.04
2023-05-21T01:26:54.481Z,83.65
2023-05-21T01:27:54.468Z,81.73
2023-05-21T01:28:54.456Z,81.52
2023-05-21T01:29:54.470Z,81.63
2023-05-21T01:30:54.431Z,82.64
2023-05-21T01:31:54.414Z,83.04
2023-05-21T01:32:54.461Z,82.44
2023-05-21T01:33:54.420Z,81.93
2023-05-21T01:34:54.374Z,82.75
2023-05-21T01:35:54.355Z,85.38
2023-05-21T01:36:54.350Z,85.27
2023-05-21T01:37:54.341Z,85.07
2023-05-21T01:38:54.319Z,84.56
2023-05-21T01:39:54.309Z,83.55
2023-05-21T01:40:54.303Z,84.06
2023-05-21T01:41:54.290Z,84.16
2023-05-21T01:42:54.277Z,84.16
2023-05-21T01:43:54.254Z,84.16
2023-05-21T01:44:54.244Z,84.30
2023-05-21T01:45:54.283Z,84.50
2023-05-21T01:46:54.293Z,84.67
2023-05-21T01:47:54.272Z,84.30
2023-05-21T01:48:54.192Z,84.27
2023-05-21T01:49:54.177Z,84.36
2023-05-21T01:50:54.169Z,84.50
2023-05-21T01:51:54.151Z,83.90
2023-05-21T01:52:54.147Z,83.29
2023-05-21T01:53:54.125Z,85.31
2023-05-21T01:54:54.110Z,86.13
2023-05-21T01:55:54.099Z,86.22
2023-05-21T01:56:54.083Z,86.22
2023-05-21T01:57:54.071Z,85.52
2023-05-21T01:58:54.058Z,85.11
2023-05-21T01:59:54.048Z,84.30
2023-05-21T02:00:54.035Z,83.59
2023-05-21T02:01:54.062Z,83.73
2023-05-21T02:02:54.079Z,83.63
2023-05-21T02:03:54.161Z,83.33
2023-05-21T02:04:53.980Z,83.33
2023-05-21T02:05:53.976Z,83.23
2023-05-21T02:06:53.952Z,82.82
2023-05-21T02:07:53.948Z,82.82
2023-05-21T02:08:53.925Z,82.01
2023-05-21T02:09:53.914Z,81.60
2023-05-21T02:10:53.912Z,83.63
2023-05-21T02:11:53.886Z,83.33
2023-05-21T02:12:53.871Z,83.12
2023-05-21T02:13:53.856Z,82.96
2023-05-21T02:14:53.843Z,82.82
2023-05-21T02:15:53.859Z,82.45
2023-05-21T02:16:53.822Z,82.15
2023-05-21T02:17:53.840Z,82.05
2023-05-21T02:18:53.915Z,82.45
2023-05-21T02:19:53.783Z,82.86
2023-05-21T02:20:53.772Z,82.15
2023-05-21T02:21:53.760Z,81.54
2023-05-21T02:22:53.742Z,83.37
2023-05-21T02:23:53.741Z,84.78
2023-05-21T02:24:53.722Z,84.99
2023-05-21T02:25:53.708Z,85.90
2023-05-21T02:26:53.939Z,85.80
2023-05-21T02:27:53.819Z,84.69
2023-05-21T02:28:53.662Z,83.98
2023-05-21T02:29:53.648Z,83.57
2023-05-21T02:30:53.635Z,82.56
2023-05-21T02:31:53.622Z,82.29
2023-05-21T02:32:53.745Z,81.64
2023-05-21T02:33:53.637Z,81.18
2023-05-21T02:34:53.575Z,83.47
2023-05-21T02:35:53.574Z,83.81
2023-05-21T02:36:53.557Z,82.80
2023-05-21T02:37:53.550Z,82.50
2023-05-21T02:38:53.541Z,83.91
2023-05-21T02:39:53.521Z,84.22
2023-05-21T02:40:53.606Z,85.03
2023-05-21T02:41:53.484Z,83.81
2023-05-21T02:42:53.481Z,82.80
2023-05-21T02:43:53.466Z,83.00
2023-05-21T02:44:53.509Z,82.39
2023-05-21T02:45:53.463Z,80.26
2023-05-21T02:46:53.424Z,79.35
2023-05-21T02:47:53.435Z,79.14
2023-05-21T02:48:53.392Z,79.45
2023-05-21T02:49:53.400Z,79.65
2023-05-21T02:50:53.362Z,79.45
2023-05-21T02:51:53.347Z,82.03
2023-05-21T02:52:53.329Z,83.20
2023-05-21T02:53:53.319Z,83.54
2023-05-21T02:54:53.314Z,83.54
2023-05-21T02:55:53.287Z,82.73
2023-05-21T02:56:53.278Z,82.50
2023-05-21T02:57:53.267Z,82.53
2023-05-21T02:58:53.308Z,82.73
2023-05-21T02:59:53.241Z,81.92
2023-05-21T03:00:53.251Z,81.31
2023-05-21T03:01:53.243Z,80.50
2023-05-21T03:02:53.379Z,79.99
2023-05-21T03:03:53.189Z,79.18
2023-05-21T03:04:53.183Z,78.88
2023-05-21T03:05:53.230Z,78.98
2023-05-21T03:06:53.161Z,79.38
2023-05-21T03:07:53.298Z,79.90
2023-05-21T03:08:53.119Z,79.90
2023-05-21T03:09:53.110Z,79.79
2023-05-21T03:10:53.099Z,79.90
2023-05-21T03:11:53.072Z,79.99
2023-05-21T03:12:53.063Z,82.53
2023-05-21T03:13:53.050Z,82.73
2023-05-21T03:14:53.031Z,81.72
2023-05-21T03:15:53.028Z,80.19
2023-05-21T03:16:53.069Z,79.28
2023-05-21T03:17:53.056Z,78.88
2023-05-21T03:18:53.030Z,78.37
2023-05-21T03:19:52.969Z,79.38
2023-05-21T03:20:52.968Z,81.72
2023-05-21T03:21:52.968Z,83.34
2023-05-21T03:22:52.990Z,83.34
2023-05-21T03:23:52.937Z,82.94
2023-05-21T03:24:52.910Z,82.33
2023-05-21T03:25:52.896Z,81.01
2023-05-21T03:26:52.884Z,80.50
2023-05-21T03:27:52.865Z,80.33
2023-05-21T03:28:52.855Z,82.06
2023-05-21T03:29:52.842Z,82.98
2023-05-21T03:30:52.850Z,82.17
2023-05-21T03:31:53.321Z,81.15
2023-05-21T03:32:52.854Z,82.67
2023-05-21T03:33:52.795Z,84.36
2023-05-21T03:34:52.772Z,83.69
2023-05-21T03:35:52.749Z,82.57
2023-05-21T03:36:52.745Z,81.56
2023-05-21T03:37:52.751Z,80.64
2023-05-21T03:38:52.723Z,80.24
2023-05-21T03:39:52.709Z,79.63
2023-05-21T03:40:52.690Z,79.72
2023-05-21T03:41:52.680Z,79.32
2023-05-21T03:42:52.667Z,78.71
2023-05-21T03:43:52.651Z,78.00
2023-05-21T03:44:52.642Z,77.90
2023-05-21T03:45:52.682Z,78.04
2023-05-21T03:46:52.612Z,77.83
2023-05-21T03:47:52.659Z,77.43
2023-05-21T03:48:52.584Z,76.92
2023-05-21T03:49:52.573Z,76.82
2023-05-21T03:50:52.559Z,76.72
2023-05-21T03:51:52.536Z,76.92
2023-05-21T03:52:52.541Z,76.72
2023-05-21T03:53:52.532Z,76.72
2023-05-21T03:54:52.505Z,76.72
2023-05-21T03:55:52.480Z,76.41
2023-05-21T03:56:52.477Z,76.10
2023-05-21T03:57:52.467Z,76.01
2023-05-21T03:58:52.448Z,76.21
2023-05-21T03:59:52.434Z,76.31
2023-05-21T04:00:52.414Z,76.51
2023-05-21T04:01:52.399Z,76.31
2023-05-21T04:02:52.516Z,76.21
2023-05-21T04:03:52.775Z,76.21
2023-05-21T04:04:52.384Z,76.51
2023-05-21T04:05:52.355Z,76.72
2023-05-21T04:06:52.334Z,76.21
2023-05-21T04:07:52.335Z,76.21
2023-05-21T04:08:52.347Z,76.10
2023-05-21T04:09:52.331Z,76.31
2023-05-21T04:10:52.288Z,76.31
2023-05-21T04:11:52.265Z,76.01
2023-05-21T04:12:52.249Z,75.90
2023-05-21T04:13:52.240Z,76.21
2023-05-21T04:14:52.241Z,76.21
2023-05-21T04:15:52.258Z,76.10
2023-05-21T04:16:52.209Z,76.21
2023-05-21T04:17:52.270Z,76.31
2023-05-21T04:18:52.186Z,76.72
2023-05-21T04:19:52.162Z,77.33
2023-05-21T04:20:52.150Z,80.37
2023-05-21T04:21:52.131Z,80.07
2023-05-21T04:22:52.121Z,80.17
2023-05-21T04:23:52.107Z,79.32
2023-05-21T04:24:52.094Z,79.02
2023-05-21T04:25:52.103Z,79.66
2023-05-21T04:26:52.063Z,79.32
2023-05-21T04:27:52.056Z,78.75
2023-05-21T04:28:52.041Z,78.14
2023-05-21T04:29:52.020Z,77.33
2023-05-21T04:30:52.027Z,77.22
2023-05-21T04:31:52.044Z,77.22
2023-05-21T04:32:52.261Z,77.19
2023-05-21T04:33:51.991Z,76.92
2023-05-21T04:34:51.965Z,76.17
2023-05-21T04:35:51.946Z,75.97
2023-05-21T04:36:51.933Z,76.48
2023-05-21T04:37:51.917Z,76.01
2023-05-21T04:38:51.910Z,75.87
2023-05-21T04:39:51.882Z,75.87
2023-05-21T04:40:51.979Z,76.07
2023-05-21T04:41:52.184Z,79.42
2023-05-21T04:42:51.855Z,81.31
2023-05-21T04:43:51.831Z,82.37
2023-05-21T04:44:51.819Z,81.45
2023-05-21T04:45:51.801Z,80.64
2023-05-21T04:46:51.869Z,82.26
2023-05-21T04:47:51.830Z,80.94
2023-05-21T04:48:51.768Z,81.25
2023-05-21T04:49:51.755Z,81.35
2023-05-21T04:50:51.742Z,80.94
2023-05-21T04:51:51.729Z,81.76
2023-05-21T04:52:51.726Z,81.86
2023-05-21T04:53:51.849Z,81.35
2023-05-21T04:54:51.685Z,80.74
2023-05-21T04:55:51.673Z,81.62
2023-05-21T04:56:51.657Z,82.37
2023-05-21T04:57:51.671Z,82.53
2023-05-21T04:58:51.632Z,82.12
2023-05-21T04:59:51.625Z,81.41
2023-05-21T05:00:51.683Z,81.21
2023-05-21T05:01:51.602Z,81.01
2023-05-21T05:02:51.654Z,80.71
2023-05-21T05:03:51.609Z,80.40
2023-05-21T05:04:51.548Z,79.90
2023-05-21T05:05:51.544Z,79.79
2023-05-21T05:06:51.532Z,79.69
2023-05-21T05:07:51.510Z,79.38
2023-05-21T05:08:51.496Z,79.28
2023-05-21T05:09:51.486Z,79.08
2023-05-21T05:10:51.474Z,79.08
2023-05-21T05:11:51.473Z,82.12
2023-05-21T05:12:51.449Z,81.52
2023-05-21T05:13:51.454Z,81.52
2023-05-21T05:14:51.421Z,82.33
2023-05-21T05:15:52.630Z,81.01
2023-05-21T05:16:51.634Z,80.60
2023-05-21T05:17:51.413Z,80.19
2023-05-21T05:18:51.428Z,79.90
2023-05-21T05:19:51.350Z,79.59
2023-05-21T05:20:51.337Z,79.59
2023-05-21T05:21:51.323Z,81.07
2023-05-21T05:22:51.333Z,81.07
2023-05-21T05:23:51.312Z,82.70
2023-05-21T05:24:51.283Z,82.50
2023-05-21T05:25:51.282Z,82.09
2023-05-21T05:26:51.261Z,82.09
2023-05-21T05:27:51.245Z,81.58
2023-05-21T05:28:51.245Z,82.90
2023-05-21T05:29:51.235Z,81.38
2023-05-21T05:30:51.234Z,82.96
2023-05-21T05:31:51.194Z,82.25
2023-05-21T05:32:51.729Z,82.66
2023-05-21T05:33:51.166Z,82.09
2023-05-21T05:34:51.412Z,82.05
2023-05-21T05:35:51.138Z,82.76
2023-05-21T05:36:51.127Z,82.15
2023-05-21T05:37:51.110Z,81.44
2023-05-21T05:38:51.106Z,81.64
2023-05-21T05:39:51.080Z,81.74
2023-05-21T05:40:51.067Z,81.44
2023-05-21T05:41:51.057Z,82.66
2023-05-21T05:42:51.050Z,82.01
2023-05-21T05:43:51.040Z,82.01
2023-05-21T05:44:51.022Z,81.50
2023-05-21T05:45:51.044Z,81.10
2023-05-21T05:46:50.997Z,82.42
2023-05-21T05:47:51.037Z,82.11
2023-05-21T05:48:50.975Z,81.60
2023-05-21T05:49:50.947Z,80.90
2023-05-21T05:50:50.951Z,81.10
2023-05-21T05:51:50.927Z,82.42
2023-05-21T05:52:50.915Z,82.92
2023-05-21T05:53:50.908Z,82.48
2023-05-21T05:54:50.882Z,82.58
2023-05-21T05:55:50.866Z,82.89
2023-05-21T05:56:50.868Z,82.28
2023-05-21T05:57:50.855Z,84.61
2023-05-21T05:58:50.825Z,85.62
2023-05-21T05:59:51.024Z,85.31
2023-05-21T06:00:50.807Z,85.21
2023-05-21T06:01:50.821Z,85.52
2023-05-21T06:02:50.857Z,84.41
2023-05-21T06:03:50.805Z,84.61
2023-05-21T06:04:50.759Z,85.21
2023-05-21T06:05:50.817Z,84.30
2023-05-21T06:06:50.734Z,84.67
2023-05-21T06:07:50.721Z,84.16
2023-05-21T06:08:50.694Z,84.10
2023-05-21T06:09:50.688Z,84.16
2023-05-21T06:10:50.679Z,84.27
2023-05-21T06:11:50.654Z,84.16
2023-05-21T06:12:50.648Z,85.78
2023-05-21T06:13:50.622Z,85.17
2023-05-21T06:14:50.622Z,84.87
2023-05-21T06:15:50.651Z,84.22
2023-05-21T06:16:50.592Z,85.54
2023-05-21T06:17:50.610Z,86.29
2023-05-21T06:18:50.581Z,86.65
2023-05-21T06:19:50.549Z,86.35
2023-05-21T06:20:50.539Z,86.15
2023-05-21T06:21:50.517Z,86.05
2023-05-21T06:22:50.509Z,87.66
2023-05-21T06:23:50.501Z,86.85
2023-05-21T06:24:50.481Z,86.85
2023-05-21T06:25:50.461Z,86.45
2023-05-21T06:26:50.478Z,87.16
2023-05-21T06:27:50.444Z,86.82
2023-05-21T06:28:50.429Z,88.33
2023-05-21T06:29:50.413Z,87.82
2023-05-21T06:30:50.406Z,88.29
2023-05-21T06:31:50.391Z,88.59
2023-05-21T06:32:50.534Z,89.30
2023-05-21T06:33:50.464Z,89.30
2023-05-21T06:34:50.597Z,89.91
2023-05-21T06:35:50.365Z,89.30
2023-05-21T06:36:50.325Z,88.79
2023-05-21T06:37:50.310Z,89.16
2023-05-21T06:38:50.297Z,88.55
2023-05-21T06:39:50.283Z,89.92
2023-05-21T06:40:50.265Z,90.12
2023-05-21T06:41:50.259Z,90.73
2023-05-21T06:42:50.245Z,91.39
2023-05-21T06:43:50.244Z,92.21
2023-05-21T06:44:50.219Z,92.71
2023-05-21T06:45:50.288Z,92.00
2023-05-21T06:46:50.212Z,92.26
2023-05-21T06:47:50.218Z,92.06
2023-05-21T06:48:50.362Z,92.32
2023-05-21T06:49:50.194Z,92.32
2023-05-21T06:50:50.135Z,93.49
2023-05-21T06:51:50.131Z,93.79
2023-05-21T06:52:50.129Z,93.89
2023-05-21T06:53:50.104Z,94.35
2023-05-21T06:54:50.079Z,94.95
2023-05-21T06:55:50.073Z,95.15
2023-05-21T06:56:50.060Z,94.95
2023-05-21T06:57:50.043Z,95.36
2023-05-21T06:58:50.032Z,95.36
2023-05-21T06:59:50.020Z,95.11
2023-05-21T07:00:50.034Z,95.51
2023-05-21T07:01:50.002Z,95.61
2023-05-21T07:02:50.085Z,95.11
2023-05-21T07:03:49.961Z,95.51
2023-05-21T07:04:49.959Z,95.31
2023-05-21T07:05:49.957Z,95.41
2023-05-21T07:06:49.936Z,95.17
2023-05-21T07:07:49.911Z,96.08
2023-05-21T07:08:49.902Z,96.37
2023-05-21T07:09:49.883Z,96.78
2023-05-21T07:10:49.877Z,96.53
2023-05-21T07:11:49.861Z,96.73
2023-05-21T07:12:49.848Z,96.23
2023-05-21T07:13:49.891Z,96.08
2023-05-21T07:14:49.812Z,97.09
2023-05-21T07:15:49.817Z,97.59
2023-05-21T07:16:49.819Z,97.24
2023-05-21T07:17:49.831Z,96.74
2023-05-21T07:18:49.811Z,96.69
2023-05-21T07:19:49.757Z,97.40
2023-05-21T07:20:49.737Z,97.40
2023-05-21T07:21:49.846Z,97.15
2023-05-21T07:22:49.717Z,97.75
2023-05-21T07:23:49.693Z,97.75
2023-05-21T07:24:49.683Z,97.55
2023-05-21T07:25:49.672Z,97.50
2023-05-21T07:26:49.667Z,97.66
2023-05-21T07:27:49.650Z,97.66
2023-05-21T07:28:49.637Z,97.06
2023-05-21T07:29:49.625Z,97.46
2023-05-21T07:30:49.633Z,97.41
2023-05-21T07:31:49.596Z,96.81
2023-05-21T07:32:49.608Z,97.02
2023-05-21T07:33:49.571Z,96.81
2023-05-21T07:34:49.557Z,96.41
2023-05-21T07:35:49.548Z,97.21
2023-05-21T07:36:49.528Z,95.81
2023-05-21T07:37:49.656Z,96.87
2023-05-21T07:38:49.860Z,96.92
2023-05-21T07:39:49.493Z,95.72
2023-05-21T07:40:49.479Z,94.97
2023-05-21T07:41:49.469Z,95.87
2023-05-21T07:42:49.447Z,95.73
2023-05-21T07:43:49.444Z,94.68
2023-05-21T07:44:49.423Z,94.34
2023-05-21T07:45:49.427Z,93.54
2023-05-21T07:46:49.465Z,93.33
2023-05-21T07:47:49.442Z,92.89
2023-05-21T07:48:49.369Z,90.69
2023-05-21T07:49:49.360Z,89.09
2023-05-21T07:50:49.351Z,82.75
2023-05-21T07:51:49.335Z,82.89
2023-05-21T07:52:49.368Z,83.39
2023-05-21T07:53:49.338Z,86.79
2023-05-21T07:54:49.292Z,87.87
2023-05-21T07:55:49.290Z,90.78
2023-05-21T07:56:49.274Z,90.67
2023-05-21T07:57:49.258Z,89.64
2023-05-21T07:58:49.264Z,86.69
2023-05-21T07:59:49.232Z,81.59
2023-05-21T08:00:49.214Z,82.85
2023-05-21T08:01:49.211Z,81.15
2023-05-21T08:02:49.300Z,82.35
2023-05-21T08:03:49.286Z,84.01
2023-05-21T08:04:49.181Z,81.48
2023-05-21T08:05:49.253Z,74.19
2023-05-21T08:06:49.149Z,79.14
2023-05-21T08:07:49.126Z,80.80
2023-05-21T08:08:49.120Z,76.37
2023-05-21T08:09:49.224Z,71.19
2023-05-21T08:10:49.091Z,73.14
2023-05-21T08:11:49.082Z,70.16
2023-05-21T08:12:49.067Z,71.05
2023-05-21T08:13:49.062Z,71.22
2023-05-21T08:14:49.047Z,68.56
2023-05-21T08:15:51.314Z,71.05
2023-05-21T08:16:49.077Z,70.32
2023-05-21T08:17:49.042Z,70.52
2023-05-21T08:18:49.012Z,73.57
2023-05-21T08:19:49.010Z,70.39
2023-05-21T08:20:48.963Z,71.75
2023-05-21T08:21:51.323Z,65.94
2023-05-21T08:22:48.942Z,69.32
2023-05-21T08:23:48.924Z,66.84
2023-05-21T08:24:48.935Z,73.37
2023-05-21T08:25:48.926Z,65.39
2023-05-21T08:26:49.242Z,64.66
2023-05-21T08:27:50.960Z,63.07
2023-05-21T08:28:48.870Z,65.06
2023-05-21T08:29:48.853Z,61.88
2023-05-21T08:30:48.859Z,61.88
2023-05-21T08:31:48.889Z,62.27
2023-05-21T08:32:48.876Z,63.93
2023-05-21T08:33:48.806Z,62.45
2023-05-21T08:34:48.789Z,60.78
2023-05-21T08:35:48.785Z,65.16
2023-05-21T08:36:48.762Z,65.25
2023-05-21T08:37:48.767Z,63.46
2023-05-21T08:38:48.738Z,64.53
2023-05-21T08:39:48.733Z,61.94
2023-05-21T08:40:48.711Z,61.75
2023-05-21T08:41:48.722Z,61.08
2023-05-21T08:42:48.691Z,60.88
2023-05-21T08:43:50.444Z,62.77
2023-05-21T08:44:48.668Z,61.98
2023-05-21T08:45:48.680Z,62.77
2023-05-21T08:46:48.645Z,63.96
2023-05-21T08:47:48.730Z,63.17
2023-05-21T08:48:48.613Z,63.76
2023-05-21T08:49:48.605Z,64.36
2023-05-21T08:50:48.594Z,61.65
2023-05-21T08:51:48.577Z,63.54
2023-05-21T08:52:48.569Z,63.07
2023-05-21T08:53:48.557Z,63.70
2023-05-21T08:54:48.543Z,63.60
2023-05-21T08:55:50.166Z,63.86
2023-05-21T08:56:48.517Z,62.18
2023-05-21T08:57:48.526Z,64.53
2023-05-21T08:58:48.504Z,64.59
2023-05-21T08:59:48.500Z,63.21
2023-05-21T09:00:48.535Z,62.48
2023-05-21T09:01:48.484Z,60.57
2023-05-21T09:02:48.482Z,59.31
2023-05-21T09:03:48.491Z,61.19
2023-05-21T09:04:48.432Z,61.10
2023-05-21T09:05:48.412Z,61.99
2023-05-21T09:06:48.411Z,61.83
2023-05-21T09:07:49.774Z,58.63
2023-05-21T09:08:48.380Z,58.13
2023-05-21T09:09:48.358Z,59.42
2023-05-21T09:10:48.348Z,57.31
2023-05-21T09:11:48.356Z,59.39
2023-05-21T09:12:48.334Z,58.57
2023-05-21T09:13:48.340Z,57.62
2023-05-21T09:14:48.314Z,56.51
2023-05-21T09:15:48.585Z,55.20
2023-05-21T09:16:48.380Z,55.20
2023-05-21T09:17:48.300Z,55.47
2023-05-21T09:18:48.297Z,56.23
2023-05-21T09:19:48.233Z,53.54
2023-05-21T09:20:48.218Z,54.03
2023-05-21T09:21:48.213Z,54.30
2023-05-21T09:22:48.216Z,51.72
2023-05-21T09:23:48.197Z,53.86
2023-05-21T09:24:48.187Z,52.16
2023-05-21T09:25:48.186Z,50.98
2023-05-21T09:26:48.156Z,50.71
2023-05-21T09:27:48.145Z,51.35
2023-05-21T09:28:48.176Z,52.73
2023-05-21T09:29:48.140Z,52.06
2023-05-21T09:30:48.151Z,51.99
2023-05-21T09:31:48.232Z,53.59
2023-05-21T09:32:48.101Z,53.03
2023-05-21T09:33:48.083Z,53.25
2023-05-21T09:34:48.067Z,56.61
2023-05-21T09:35:48.045Z,53.94
2023-05-21T09:36:48.051Z,53.45
2023-05-21T09:37:48.071Z,52.95
2023-05-21T09:38:48.017Z,54.98
2023-05-21T09:39:48.456Z,56.20
2023-05-21T09:40:47.987Z,55.70
2023-05-21T09:41:47.975Z,56.40
2023-05-21T09:42:47.969Z,57.09
2023-05-21T09:43:47.966Z,57.65
2023-05-21T09:44:47.938Z,56.37
2023-05-21T09:45:47.949Z,56.17
2023-05-21T09:46:47.982Z,56.14
2023-05-21T09:47:47.923Z,56.71
2023-05-21T09:48:47.898Z,55.66
2023-05-21T09:49:47.879Z,54.48
2023-05-21T09:50:47.869Z,52.87
2023-05-21T09:51:47.859Z,54.58
2023-05-21T09:52:47.848Z,54.31
2023-05-21T09:53:47.833Z,53.03
2023-05-21T09:54:47.824Z,53.81
2023-05-21T09:55:47.828Z,53.85
2023-05-21T09:56:47.803Z,55.89
2023-05-21T09:57:50.442Z,55.26
2023-05-21T09:58:47.768Z,57.30
2023-05-21T09:59:47.759Z,56.21
2023-05-21T10:00:47.767Z,56.71
2023-05-21T10:01:47.782Z,56.54
2023-05-21T10:02:48.117Z,56.67
2023-05-21T10:03:50.018Z,56.86
2023-05-21T10:04:47.790Z,55.70
2023-05-21T10:05:47.691Z,58.30
2023-05-21T10:06:47.686Z,57.90
2023-05-21T10:07:47.673Z,58.30
2023-05-21T10:08:47.661Z,58.33
2023-05-21T10:09:47.656Z,59.42
2023-05-21T10:10:47.624Z,59.42
2023-05-21T10:11:47.707Z,59.62
2023-05-21T10:12:47.600Z,58.95
2023-05-21T10:13:47.593Z,60.44
2023-05-21T10:14:47.577Z,60.11
2023-05-21T10:15:50.147Z,60.41
2023-05-21T10:16:47.698Z,59.81
2023-05-21T10:17:47.613Z,58.06
2023-05-21T10:18:47.543Z,59.61
2023-05-21T10:19:47.515Z,60.89
2023-05-21T10:20:47.500Z,61.19
2023-05-21T10:21:47.638Z,60.10
2023-05-21T10:22:47.471Z,60.80
2023-05-21T10:23:47.465Z,60.57
2023-05-21T10:24:47.606Z,62.18
2023-05-21T10:25:47.443Z,60.67
2023-05-21T10:26:47.426Z,61.16
2023-05-21T10:27:47.426Z,59.94
2023-05-21T10:28:47.406Z,60.94
2023-05-21T10:29:47.401Z,60.74
2023-05-21T10:30:47.381Z,60.94
2023-05-21T10:31:47.483Z,60.44
2023-05-21T10:32:47.434Z,60.94
2023-05-21T10:33:47.374Z,59.58
2023-05-21T10:34:47.330Z,60.99
2023-05-21T10:35:47.316Z,61.22
2023-05-21T10:36:47.302Z,60.96
2023-05-21T10:37:47.306Z,61.25
2023-05-21T10:38:47.282Z,62.05
2023-05-21T10:39:47.266Z,63.43
2023-05-21T10:40:47.254Z,62.15
2023-05-21T10:41:47.243Z,62.54
2023-05-21T10:42:47.227Z,63.70
2023-05-21T10:43:47.241Z,61.91
2023-05-21T10:44:47.757Z,62.21
2023-05-21T10:45:47.233Z,62.41
2023-05-21T10:46:47.188Z,63.10
2023-05-21T10:47:47.202Z,62.02
2023-05-21T10:48:47.157Z,62.45
2023-05-21T10:49:47.266Z,63.24
2023-05-21T10:50:47.136Z,64.03
2023-05-21T10:51:47.113Z,62.64
2023-05-21T10:52:47.109Z,62.57
2023-05-21T10:53:47.097Z,63.49
2023-05-21T10:54:47.079Z,64.09
2023-05-21T10:55:47.070Z,64.62
2023-05-21T10:56:47.051Z,65.12
2023-05-21T10:57:47.041Z,64.69
2023-05-21T10:58:47.037Z,64.09
2023-05-21T10:59:47.015Z,64.49
2023-05-21T11:00:47.009Z,63.82
2023-05-21T11:01:47.111Z,64.52
2023-05-21T11:02:47.076Z,64.52
2023-05-21T11:03:47.023Z,64.72
2023-05-21T11:04:46.956Z,63.53
2023-05-21T11:05:46.961Z,63.73
2023-05-21T11:06:46.948Z,63.82
2023-05-21T11:07:46.908Z,65.05
2023-05-21T11:08:46.899Z,65.15
2023-05-21T11:09:46.880Z,65.22
2023-05-21T11:10:46.874Z,64.85
2023-05-21T11:11:46.877Z,64.85
2023-05-21T11:12:46.917Z,65.35
2023-05-21T11:13:46.844Z,65.05
2023-05-21T11:14:46.824Z,65.98
2023-05-21T11:15:46.814Z,66.77
2023-05-21T11:16:46.866Z,67.33
2023-05-21T11:17:46.801Z,66.35
2023-05-21T11:18:46.796Z,64.95
2023-05-21T11:19:46.827Z,65.38
2023-05-21T11:20:46.751Z,64.69
2023-05-21T11:21:46.760Z,65.98
2023-05-21T11:22:46.748Z,64.88
2023-05-21T11:23:46.716Z,64.78
2023-05-21T11:24:47.423Z,64.85
2023-05-21T11:25:46.693Z,64.75
2023-05-21T11:26:46.680Z,64.55
2023-05-21T11:27:46.657Z,64.85
2023-05-21T11:28:46.643Z,65.45
2023-05-21T11:29:46.632Z,66.11
2023-05-21T11:30:46.623Z,64.52
2023-05-21T11:31:46.785Z,65.68
2023-05-21T11:32:46.667Z,64.16
2023-05-21T11:33:46.581Z,65.12
2023-05-21T11:34:46.576Z,63.04
2023-05-21T11:35:46.555Z,63.10
2023-05-21T11:36:46.543Z,63.77
2023-05-21T11:37:46.572Z,62.29
2023-05-21T11:38:46.515Z,61.56
2023-05-21T11:39:46.512Z,60.77
2023-05-21T11:40:46.493Z,60.27
2023-05-21T11:41:46.481Z,61.16
2023-05-21T11:42:46.470Z,59.78
2023-05-21T11:43:46.458Z,59.61
2023-05-21T11:44:46.448Z,60.80
2023-05-21T11:45:46.429Z,59.80
2023-05-21T11:46:46.490Z,60.93
2023-05-21T11:47:46.405Z,62.88
2023-05-21T11:48:46.390Z,60.50
2023-05-21T11:49:46.451Z,60.60
2023-05-21T11:50:46.371Z,62.35
2023-05-21T11:51:46.509Z,61.46
2023-05-21T11:52:46.357Z,59.94
2023-05-21T11:53:46.468Z,59.75
2023-05-21T11:54:46.608Z,60.31
2023-05-21T11:55:46.302Z,59.12
2023-05-21T11:56:46.306Z,59.30
2023-05-21T11:57:46.278Z,58.60
2023-05-21T11:58:46.267Z,58.40
2023-05-21T11:59:46.253Z,58.11
2023-05-21T12:00:46.237Z,58.37
2023-05-21T12:01:46.225Z,57.41
2023-05-21T12:02:46.281Z,58.01
2023-05-21T12:03:46.412Z,57.71
2023-05-21T12:04:46.205Z,57.17
2023-05-21T12:05:46.247Z,56.68
2023-05-21T12:06:46.179Z,58.56
2023-05-21T12:07:46.157Z,57.37
2023-05-21T12:08:46.146Z,57.69
2023-05-21T12:09:46.159Z,58.65
2023-05-21T12:10:46.298Z,57.17
2023-05-21T12:11:46.110Z,56.65
2023-05-21T12:12:54.569Z,56.25
2023-05-21T12:13:47.120Z,55.78
2023-05-21T12:14:46.056Z,57.54
2023-05-21T12:15:46.048Z,55.98
2023-05-21T12:16:46.057Z,57.07
2023-05-21T12:17:46.055Z,56.25
2023-05-21T12:18:46.149Z,54.86
2023-05-21T12:19:46.024Z,56.05
2023-05-21T12:20:45.990Z,56.45
2023-05-21T12:21:45.973Z,56.23
2023-05-21T12:22:45.972Z,55.83
2023-05-21T12:23:45.948Z,56.52
2023-05-21T12:24:45.930Z,55.73
2023-05-21T12:25:45.942Z,55.43
2023-05-21T12:26:45.930Z,55.33
2023-05-21T12:27:45.893Z,56.25
2023-05-21T12:28:45.884Z,55.49
2023-05-21T12:29:45.865Z,57.00
2023-05-21T12:30:45.857Z,55.81
2023-05-21T12:31:45.884Z,57.29
2023-05-21T12:32:45.861Z,56.68
2023-05-21T12:33:45.833Z,57.07
2023-05-21T12:34:45.810Z,57.64
2023-05-21T12:35:45.812Z,57.24
2023-05-21T12:36:45.781Z,56.62
2023-05-21T12:37:45.766Z,54.94
2023-05-21T12:38:45.760Z,56.13
2023-05-21T12:39:45.755Z,54.84
2023-05-21T12:40:45.947Z,55.83
2023-05-21T12:41:45.752Z,55.51
2023-05-21T12:42:46.142Z,56.69
2023-05-21T12:43:45.697Z,55.41
2023-05-21T12:44:45.683Z,56.40
2023-05-21T12:45:45.698Z,54.81
2023-05-21T12:46:45.662Z,55.90
2023-05-21T12:47:45.671Z,54.81
2023-05-21T12:48:45.635Z,55.11
2023-05-21T12:49:45.622Z,55.11
2023-05-21T12:50:45.611Z,55.01
2023-05-21T12:51:45.590Z,55.04
2023-05-21T12:52:45.593Z,55.24